createdAt,value
2018-04-02T00:00:44.892Z,0
2018-04-02T00:01:44.694Z,0
2018-04-02T00:02:44.919Z,0
2018-04-02T00:03:44.537Z,0
2018-04-02T00:04:44.611Z,0
2018-04-02T00:05:44.697Z,0
2018-04-02T00:06:44.384Z,0
2018-04-02T00:07:44.625Z,0
2018-04-02T00:08:44.902Z,0
2018-04-02T00:09:43.979Z,0
2018-04-02T00:10:44.221Z,0
2018-04-02T00:11:44.467Z,0
2018-04-02T00:12:43.984Z,0
2018-04-02T00:13:44.169Z,0
2018-04-02T00:14:43.884Z,0
2018-04-02T00:15:44.261Z,0
2018-04-02T00:16:43.946Z,0
2018-04-02T00:17:44.392Z,0
2018-04-02T00:18:44.259Z,0
2018-04-02T00:19:44.045Z,0
2018-04-02T00:20:44.451Z,0
2018-04-02T00:21:43.749Z,0
2018-04-02T00:22:44.271Z,0
2018-04-02T00:23:44.322Z,0
2018-04-02T00:24:43.420Z,0
2018-04-02T00:25:44.574Z,0
2018-04-02T00:26:43.968Z,0
2018-04-02T00:27:44.194Z,0
2018-04-02T00:28:44.375Z,0
2018-04-02T00:29:43.850Z,0
2018-04-02T00:30:44.110Z,0
2018-04-02T00:31:44.358Z,0
2018-04-02T00:32:44.333Z,0
2018-04-02T00:33:43.508Z,0
2018-04-02T00:34:43.501Z,0
2018-04-02T00:35:44.041Z,0
2018-04-02T00:36:44.005Z,0
2018-04-02T00:37:43.969Z,0
2018-04-02T00:38:44.051Z,0
2018-04-02T00:39:43.738Z,0
2018-04-02T00:40:43.966Z,0
2018-04-02T00:41:43.730Z,0
2018-04-02T00:42:43.384Z,0
2018-04-02T00:43:43.971Z,0
2018-04-02T00:44:43.552Z,0
2018-04-02T00:45:44.314Z,0
2018-04-02T00:46:43.314Z,0
2018-04-02T00:47:43.546Z,0
2018-04-02T00:48:43.265Z,0
2018-04-02T00:49:43.532Z,0
2018-04-02T00:50:43.979Z,0
2018-04-02T00:51:43.226Z,0
2018-04-02T00:52:43.732Z,0
2018-04-02T00:53:43.433Z,0
2018-04-02T00:54:43.434Z,0
2018-04-02T00:55:43.413Z,0
2018-04-02T00:56:43.050Z,0
2018-04-02T00:57:43.311Z,0
2018-04-02T00:58:43.288Z,0
2018-04-02T00:59:43.006Z,0
2018-04-02T01:00:43.061Z,0
2018-04-02T01:01:43.322Z,0
2018-04-02T01:02:43.346Z,0
2018-04-02T01:03:43.193Z,0
2018-04-02T01:04:43.203Z,0
2018-04-02T01:05:43.773Z,0
2018-04-02T01:06:42.629Z,0
2018-04-02T01:07:42.944Z,0
2018-04-02T01:08:43.156Z,0
2018-04-02T01:09:43.329Z,0
2018-04-02T01:10:43.158Z,0
2018-04-02T01:11:42.835Z,0
2018-04-02T01:12:43.356Z,0
2018-04-02T01:13:43.243Z,0
2018-04-02T01:14:42.747Z,0
2018-04-02T01:15:43.229Z,0
2018-04-02T01:16:43.559Z,0
2018-04-02T01:17:42.638Z,0
2018-04-02T01:18:43.155Z,0
2018-04-02T01:19:42.960Z,0
2018-04-02T01:20:42.838Z,0
2018-04-02T01:21:43.162Z,0
2018-04-02T01:22:42.905Z,0
2018-04-02T01:23:42.805Z,0
2018-04-02T01:24:42.533Z,0
2018-04-02T01:25:42.877Z,0
2018-04-02T01:26:42.458Z,0
2018-04-02T01:27:43.336Z,0
2018-04-02T01:28:42.743Z,0
2018-04-02T01:29:42.666Z,0
2018-04-02T01:30:42.901Z,0
2018-04-02T01:31:42.949Z,0
2018-04-02T01:32:43.191Z,0
2018-04-02T01:33:42.593Z,0
2018-04-02T01:34:42.355Z,0
2018-04-02T01:35:42.689Z,0
2018-04-02T01:36:42.340Z,0
2018-04-02T01:37:42.510Z,0
2018-04-02T01:38:42.860Z,0
2018-04-02T01:39:43.094Z,0
2018-04-02T01:40:42.790Z,0
2018-04-02T01:41:42.690Z,0
2018-04-02T01:42:43.193Z,0
2018-04-02T01:43:42.232Z,0
2018-04-02T01:44:42.469Z,0
2018-04-02T01:45:42.340Z,0
2018-04-02T01:46:43.102Z,0
2018-04-02T01:47:42.852Z,0
2018-04-02T01:48:41.856Z,0
2018-04-02T01:49:41.781Z,0
2018-04-02T01:50:41.712Z,0
2018-04-02T01:51:42.440Z,0
2018-04-02T01:52:42.303Z,0
2018-04-02T01:53:42.456Z,0
2018-04-02T01:54:42.693Z,0
2018-04-02T01:55:42.239Z,0
2018-04-02T01:56:42.240Z,0
2018-04-02T01:57:42.255Z,0
2018-04-02T01:58:42.401Z,0
2018-04-02T01:59:42.362Z,0
2018-04-02T02:00:42.381Z,0
2018-04-02T02:01:41.886Z,0
2018-04-02T02:02:42.106Z,0
2018-04-02T02:03:42.614Z,0
2018-04-02T02:04:42.444Z,0
2018-04-02T02:05:42.469Z,0
2018-04-02T02:06:41.966Z,0
2018-04-02T02:07:42.015Z,0
2018-04-02T02:08:42.249Z,0
2018-04-02T02:09:42.464Z,0
2018-04-02T02:10:41.963Z,0
2018-04-02T02:11:42.189Z,0
2018-04-02T02:12:41.938Z,0
2018-04-02T02:13:42.346Z,0
2018-04-02T02:14:42.089Z,0
2018-04-02T02:15:41.859Z,0
2018-04-02T02:16:41.499Z,0
2018-04-02T02:17:42.391Z,0
2018-04-02T02:18:42.272Z,0
2018-04-02T02:19:41.950Z,0
2018-04-02T02:20:41.756Z,0
2018-04-02T02:21:42.252Z,0
2018-04-02T02:22:41.646Z,0
2018-04-02T02:23:42.240Z,0
2018-04-02T02:24:42.109Z,0
2018-04-02T02:25:42.090Z,0
2018-04-02T02:26:42.124Z,0
2018-04-02T02:27:41.346Z,0
2018-04-02T02:28:41.914Z,0
2018-04-02T02:29:42.012Z,0
2018-04-02T02:30:41.452Z,0
2018-04-02T02:31:41.695Z,0
2018-04-02T02:32:41.452Z,0
2018-04-02T02:33:41.666Z,0
2018-04-02T02:34:41.381Z,0
2018-04-02T02:35:41.075Z,0
2018-04-02T02:36:41.601Z,0
2018-04-02T02:37:41.356Z,0
2018-04-02T02:38:41.295Z,0
2018-04-02T02:39:41.534Z,0
2018-04-02T02:40:41.513Z,0
2018-04-02T02:41:41.529Z,0
2018-04-02T02:42:41.751Z,0
2018-04-02T02:43:41.192Z,0
2018-04-02T02:44:41.719Z,0
2018-04-02T02:45:41.495Z,0
2018-04-02T02:46:40.860Z,0
2018-04-02T02:47:41.103Z,0
2018-04-02T02:48:41.133Z,0
2018-04-02T02:49:41.053Z,0
2018-04-02T02:50:41.385Z,0
2018-04-02T02:51:40.592Z,0
2018-04-02T02:52:40.782Z,0
2018-04-02T02:53:40.443Z,0
2018-04-02T02:54:41.212Z,0
2018-04-02T02:55:40.955Z,0
2018-04-02T02:56:41.244Z,0
2018-04-02T02:57:40.666Z,0
2018-04-02T02:58:40.988Z,0
2018-04-02T02:59:41.456Z,0
2018-04-02T03:00:40.982Z,0
2018-04-02T03:01:40.837Z,0
2018-04-02T03:02:40.815Z,0
2018-04-02T03:03:41.130Z,0
2018-04-02T03:04:40.758Z,0
2018-04-02T03:05:41.023Z,0
2018-04-02T03:06:40.778Z,0
2018-04-02T03:07:40.145Z,0
2018-04-02T03:08:40.184Z,0
2018-04-02T03:09:40.642Z,0
2018-04-02T03:10:40.405Z,0
2018-04-02T03:11:40.339Z,0
2018-04-02T03:12:40.378Z,0
2018-04-02T03:13:41.205Z,0
2018-04-02T03:14:40.878Z,0
2018-04-02T03:15:40.858Z,0
2018-04-02T03:16:40.550Z,0
2018-04-02T03:17:40.897Z,0
2018-04-02T03:18:40.229Z,0
2018-04-02T03:19:40.642Z,0
2018-04-02T03:20:40.948Z,0
2018-04-02T03:21:40.701Z,0
2018-04-02T03:22:40.467Z,0
2018-04-02T03:23:40.137Z,0
2018-04-02T03:24:40.681Z,0
2018-04-02T03:25:40.367Z,0
2018-04-02T03:26:40.437Z,0
2018-04-02T03:27:40.367Z,0
2018-04-02T03:28:40.245Z,0
2018-04-02T03:29:40.497Z,0
2018-04-02T03:30:40.509Z,0
2018-04-02T03:31:40.459Z,0
2018-04-02T03:32:40.428Z,0
2018-04-02T03:33:40.675Z,0
2018-04-02T03:34:40.655Z,0
2018-04-02T03:35:40.112Z,0
2018-04-02T03:36:39.824Z,0
2018-04-02T03:37:40.057Z,0
2018-04-02T03:38:40.041Z,0
2018-04-02T03:39:40.298Z,0
2018-04-02T03:40:40.540Z,0
2018-04-02T03:41:39.987Z,0
2018-04-02T03:42:39.697Z,0
2018-04-02T03:43:40.212Z,0
2018-04-02T03:44:39.662Z,0
2018-04-02T03:45:40.170Z,0
2018-04-02T03:46:39.879Z,0
2018-04-02T03:47:39.865Z,0
2018-04-02T03:48:40.102Z,0
2018-04-02T03:49:40.077Z,0
2018-04-02T03:50:39.801Z,0
2018-04-02T03:51:39.780Z,0
2018-04-02T03:52:40.285Z,0
2018-04-02T03:53:39.728Z,0
2018-04-02T03:54:39.453Z,0
2018-04-02T03:55:39.686Z,0
2018-04-02T03:56:39.412Z,0
2018-04-02T03:57:39.913Z,0
2018-04-02T03:58:39.889Z,0
2018-04-02T03:59:39.606Z,0
2018-04-02T04:00:39.585Z,0
2018-04-02T04:01:39.578Z,0
2018-04-02T04:02:39.553Z,0
2018-04-02T04:03:39.267Z,0
2018-04-02T04:04:39.236Z,0
2018-04-02T04:05:39.217Z,0
2018-04-02T04:06:39.198Z,0
2018-04-02T04:07:39.454Z,0
2018-04-02T04:08:39.154Z,0
2018-04-02T04:09:38.887Z,0
2018-04-02T04:10:39.377Z,0
2018-04-02T04:11:39.835Z,0
2018-04-02T04:12:39.652Z,0
2018-04-02T04:13:39.857Z,0
2018-04-02T04:14:39.030Z,0
2018-04-02T04:15:39.276Z,0
2018-04-02T04:16:39.266Z,0
2018-04-02T04:17:39.691Z,0
2018-04-02T04:18:39.477Z,0
2018-04-02T04:19:38.661Z,0
2018-04-02T04:20:39.433Z,0
2018-04-02T04:21:39.145Z,0
2018-04-02T04:22:38.862Z,0
2018-04-02T04:23:39.109Z,0
2018-04-02T04:24:39.086Z,0
2018-04-02T04:25:39.062Z,0
2018-04-02T04:26:39.314Z,0
2018-04-02T04:27:39.025Z,0
2018-04-02T04:28:39.003Z,0
2018-04-02T04:29:39.246Z,0
2018-04-02T04:30:39.219Z,0
2018-04-02T04:31:38.664Z,0
2018-04-02T04:32:39.188Z,0
2018-04-02T04:33:38.897Z,0
2018-04-02T04:34:38.891Z,0
2018-04-02T04:35:38.863Z,0
2018-04-02T04:36:38.834Z,0
2018-04-02T04:37:39.068Z,0
2018-04-02T04:38:39.057Z,0
2018-04-02T04:39:38.508Z,0
2018-04-02T04:40:38.751Z,0
2018-04-02T04:41:39.309Z,0
2018-04-02T04:42:38.968Z,0
2018-04-02T04:43:38.678Z,0
2018-04-02T04:44:38.661Z,0
2018-04-02T04:45:38.376Z,0
2018-04-02T04:46:39.164Z,0
2018-04-02T04:47:38.331Z,0
2018-04-02T04:48:39.114Z,0
2018-04-02T04:49:38.834Z,0
2018-04-02T04:50:38.813Z,0
2018-04-02T04:51:38.622Z,0
2018-04-02T04:52:38.494Z,0
2018-04-02T04:53:38.740Z,0
2018-04-02T04:54:38.972Z,0
2018-04-02T04:55:38.966Z,0
2018-04-02T04:56:38.151Z,0
2018-04-02T04:57:38.392Z,0
2018-04-02T04:58:38.106Z,0
2018-04-02T04:59:38.345Z,0
2018-04-02T05:00:38.587Z,0
2018-04-02T05:01:38.572Z,0
2018-04-02T05:02:37.753Z,0
2018-04-02T05:03:38.526Z,0
2018-04-02T05:04:38.512Z,0
2018-04-02T05:05:38.238Z,5
2018-04-02T05:06:38.202Z,5
2018-04-02T05:07:38.443Z,5
2018-04-02T05:08:38.695Z,5
2018-04-02T05:09:37.866Z,5
2018-04-02T05:10:38.111Z,5
2018-04-02T05:11:38.364Z,5
2018-04-02T05:12:37.819Z,10
2018-04-02T05:13:38.327Z,10
2018-04-02T05:14:38.033Z,10
2018-04-02T05:15:38.014Z,10
2018-04-02T05:16:37.995Z,15
2018-04-02T05:17:38.083Z,15
2018-04-02T05:18:38.491Z,15
2018-04-02T05:19:37.659Z,15
2018-04-02T05:20:37.395Z,15
2018-04-02T05:21:37.917Z,20
2018-04-02T05:22:37.668Z,20
2018-04-02T05:23:37.870Z,20
2018-04-02T05:24:38.142Z,20
2018-04-02T05:25:38.072Z,25
2018-04-02T05:26:37.591Z,25
2018-04-02T05:27:37.622Z,25
2018-04-02T05:28:37.953Z,25
2018-04-02T05:29:37.734Z,25
2018-04-02T05:30:37.990Z,25
2018-04-02T05:31:37.783Z,30
2018-04-02T05:32:37.670Z,30
2018-04-02T05:33:37.740Z,30
2018-04-02T05:34:37.742Z,30
2018-04-02T05:35:37.736Z,35
2018-04-02T05:36:37.574Z,35
2018-04-02T05:37:38.174Z,35
2018-04-02T05:38:37.467Z,35
2018-04-02T05:39:38.187Z,40
2018-04-02T05:40:37.766Z,35
2018-04-02T05:41:37.205Z,40
2018-04-02T05:42:37.854Z,40
2018-04-02T05:43:37.266Z,40
2018-04-02T05:44:37.988Z,40
2018-04-02T05:45:37.819Z,40
2018-04-02T05:46:38.016Z,45
2018-04-02T05:47:37.137Z,45
2018-04-02T05:48:37.988Z,45
2018-04-02T05:49:37.672Z,45
2018-04-02T05:50:37.389Z,50
2018-04-02T05:51:37.352Z,50
2018-04-02T05:52:37.259Z,50
2018-04-02T05:53:37.692Z,50
2018-04-02T05:54:36.728Z,50
2018-04-02T05:55:37.413Z,55
2018-04-02T05:56:37.945Z,55
2018-04-02T05:57:37.457Z,55
2018-04-02T05:58:37.705Z,55
2018-04-02T05:59:36.914Z,55
2018-04-02T06:00:37.352Z,60
2018-04-02T06:01:37.064Z,60
2018-04-02T06:02:37.033Z,65
2018-04-02T06:03:37.326Z,65
2018-04-02T06:04:37.042Z,65
2018-04-02T06:05:37.519Z,65
2018-04-02T06:06:37.757Z,65
2018-04-02T06:07:37.480Z,60
2018-04-02T06:08:37.382Z,60
2018-04-02T06:09:37.355Z,65
2018-04-02T06:10:36.952Z,65
2018-04-02T06:11:36.977Z,65
2018-04-02T06:12:37.629Z,65
2018-04-02T06:13:36.660Z,65
2018-04-02T06:14:37.432Z,65
2018-04-02T06:15:37.112Z,65
2018-04-02T06:16:37.226Z,70
2018-04-02T06:17:36.780Z,70
2018-04-02T06:18:36.979Z,80
2018-04-02T06:19:37.173Z,90
2018-04-02T06:20:36.934Z,95
2018-04-02T06:21:36.691Z,100
2018-04-02T06:22:36.450Z,100
2018-04-02T06:23:36.393Z,105
2018-04-02T06:24:36.857Z,105
2018-04-02T06:25:36.359Z,110
2018-04-02T06:26:36.863Z,110
2018-04-02T06:27:36.816Z,115
2018-04-02T06:28:36.292Z,120
2018-04-02T06:29:36.520Z,120
2018-04-02T06:30:36.998Z,120
2018-04-02T06:31:36.833Z,125
2018-04-02T06:32:36.703Z,130
2018-04-02T06:33:37.013Z,135
2018-04-02T06:34:36.509Z,135
2018-04-02T06:35:36.677Z,135
2018-04-02T06:36:36.444Z,135
2018-04-02T06:37:36.109Z,130
2018-04-02T06:38:36.322Z,130
2018-04-02T06:39:36.309Z,130
2018-04-02T06:40:36.014Z,125
2018-04-02T06:41:36.001Z,120
2018-04-02T06:42:36.800Z,115
2018-04-02T06:43:36.252Z,115
2018-04-02T06:44:36.801Z,115
2018-04-02T06:45:36.292Z,115
2018-04-02T06:46:36.800Z,115
2018-04-02T06:47:36.232Z,115
2018-04-02T06:48:36.408Z,115
2018-04-02T06:49:36.406Z,120
2018-04-02T06:50:36.131Z,120
2018-04-02T06:51:35.896Z,120
2018-04-02T06:52:36.329Z,120
2018-04-02T06:53:36.305Z,125
2018-04-02T06:54:35.730Z,130
2018-04-02T06:55:35.973Z,135
2018-04-02T06:56:36.630Z,140
2018-04-02T06:57:36.222Z,140
2018-04-02T06:58:36.448Z,140
2018-04-02T06:59:35.564Z,145
2018-04-02T07:00:36.242Z,140
2018-04-02T07:01:36.155Z,135
2018-04-02T07:02:36.181Z,135
2018-04-02T07:03:35.641Z,130
2018-04-02T07:04:35.996Z,130
2018-04-02T07:05:36.434Z,125
2018-04-02T07:06:36.187Z,125
2018-04-02T07:07:35.767Z,130
2018-04-02T07:08:36.067Z,135
2018-04-02T07:09:35.772Z,135
2018-04-02T07:10:35.593Z,140
2018-04-02T07:11:36.062Z,145
2018-04-02T07:12:35.917Z,145
2018-04-02T07:13:35.705Z,150
2018-04-02T07:14:35.958Z,155
2018-04-02T07:15:35.138Z,155
2018-04-02T07:16:35.911Z,160
2018-04-02T07:17:35.590Z,155
2018-04-02T07:18:35.874Z,155
2018-04-02T07:19:35.374Z,160
2018-04-02T07:20:35.240Z,165
2018-04-02T07:21:35.486Z,170
2018-04-02T07:22:35.819Z,175
2018-04-02T07:23:36.215Z,175
2018-04-02T07:24:35.496Z,180
2018-04-02T07:25:35.687Z,200
2018-04-02T07:26:35.962Z,195
2018-04-02T07:27:35.678Z,200
2018-04-02T07:28:35.148Z,205
2018-04-02T07:29:35.478Z,210
2018-04-02T07:30:35.112Z,205
2018-04-02T07:31:35.618Z,205
2018-04-02T07:32:35.624Z,215
2018-04-02T07:33:35.529Z,220
2018-04-02T07:34:35.250Z,215
2018-04-02T07:35:35.007Z,205
2018-04-02T07:36:34.679Z,200
2018-04-02T07:37:35.339Z,200
2018-04-02T07:38:34.922Z,210
2018-04-02T07:39:35.437Z,230
2018-04-02T07:40:35.152Z,255
2018-04-02T07:41:35.678Z,285
2018-04-02T07:42:35.105Z,290
2018-04-02T07:43:34.865Z,290
2018-04-02T07:44:35.342Z,300
2018-04-02T07:45:35.066Z,295
2018-04-02T07:46:35.053Z,285
2018-04-02T07:47:35.286Z,280
2018-04-02T07:48:34.992Z,270
2018-04-02T07:49:34.946Z,260
2018-04-02T07:50:34.998Z,255
2018-04-02T07:51:34.954Z,245
2018-04-02T07:52:34.679Z,245
2018-04-02T07:53:34.653Z,245
2018-04-02T07:54:34.918Z,245
2018-04-02T07:55:35.420Z,245
2018-04-02T07:56:35.411Z,255
2018-04-02T07:57:34.596Z,265
2018-04-02T07:58:34.843Z,280
2018-04-02T07:59:34.813Z,285
2018-04-02T08:00:35.064Z,285
2018-04-02T08:01:34.844Z,300
2018-04-02T08:02:35.058Z,300
2018-04-02T08:03:34.752Z,295
2018-04-02T08:04:34.735Z,285
2018-04-02T08:05:34.875Z,285
2018-04-02T08:06:35.242Z,280
2018-04-02T08:07:34.685Z,280
2018-04-02T08:08:34.714Z,280
2018-04-02T08:09:34.920Z,280
2018-04-02T08:10:34.905Z,280
2018-04-02T08:11:34.826Z,275
2018-04-02T08:12:34.387Z,280
2018-04-02T08:13:34.972Z,285
2018-04-02T08:14:34.599Z,290
2018-04-02T08:15:34.557Z,315
2018-04-02T08:16:34.539Z,330
2018-04-02T08:17:34.594Z,320
2018-04-02T08:18:34.561Z,335
2018-04-02T08:19:34.504Z,370
2018-04-02T08:20:35.084Z,325
2018-04-02T08:21:34.819Z,330
2018-04-02T08:22:34.291Z,305
2018-04-02T08:23:34.493Z,305
2018-04-02T08:24:34.763Z,390
2018-04-02T08:25:34.833Z,310
2018-04-02T08:26:34.702Z,335
2018-04-02T08:27:34.137Z,340
2018-04-02T08:28:34.914Z,405
2018-04-02T08:29:34.791Z,755
2018-04-02T08:30:34.679Z,460
2018-04-02T08:31:34.620Z,405
2018-04-02T08:32:34.755Z,310
2018-04-02T08:33:34.660Z,300
2018-04-02T08:34:34.011Z,310
2018-04-02T08:35:34.516Z,320
2018-04-02T08:36:34.044Z,335
2018-04-02T08:37:34.508Z,590
2018-04-02T08:38:34.251Z,525
2018-04-02T08:39:34.442Z,405
2018-04-02T08:40:34.444Z,400
2018-04-02T08:41:34.266Z,490
2018-04-02T08:42:34.147Z,335
2018-04-02T08:43:34.133Z,780
2018-04-02T08:44:34.412Z,865
2018-04-02T08:45:34.105Z,670
2018-04-02T08:46:34.092Z,630
2018-04-02T08:47:34.459Z,535
2018-04-02T08:48:34.454Z,560
2018-04-02T08:49:34.772Z,755
2018-04-02T08:50:34.737Z,770
2018-04-02T08:51:34.437Z,645
2018-04-02T08:52:34.559Z,540
2018-04-02T08:53:34.054Z,615
2018-04-02T08:54:34.581Z,515
2018-04-02T08:55:34.285Z,475
2018-04-02T08:56:33.962Z,445
2018-04-02T08:57:34.351Z,425
2018-04-02T08:58:33.474Z,420
2018-04-02T08:59:33.704Z,430
2018-04-02T09:00:34.002Z,430
2018-04-02T09:01:33.396Z,435
2018-04-02T09:02:33.665Z,460
2018-04-02T09:03:34.004Z,435
2018-04-02T09:04:34.086Z,425
2018-04-02T09:05:34.154Z,415
2018-04-02T09:06:33.348Z,395
2018-04-02T09:07:33.862Z,380
2018-04-02T09:08:34.380Z,370
2018-04-02T09:09:33.832Z,350
2018-04-02T09:10:34.132Z,335
2018-04-02T09:11:33.805Z,335
2018-04-02T09:12:33.624Z,340
2018-04-02T09:13:33.543Z,335
2018-04-02T09:14:33.247Z,340
2018-04-02T09:15:34.369Z,350
2018-04-02T09:16:34.143Z,340
2018-04-02T09:17:34.023Z,365
2018-04-02T09:18:33.995Z,440
2018-04-02T09:19:33.741Z,390
2018-04-02T09:20:33.711Z,380
2018-04-02T09:21:33.430Z,360
2018-04-02T09:22:33.668Z,330
2018-04-02T09:23:34.262Z,330
2018-04-02T09:24:33.908Z,355
2018-04-02T09:25:34.171Z,430
2018-04-02T09:26:34.194Z,515
2018-04-02T09:27:33.882Z,440
2018-04-02T09:28:33.332Z,455
2018-04-02T09:29:33.315Z,530
2018-04-02T09:30:34.121Z,480
2018-04-02T09:31:33.580Z,440
2018-04-02T09:32:33.578Z,425
2018-04-02T09:33:33.545Z,385
2018-04-02T09:34:33.804Z,335
2018-04-02T09:35:34.068Z,305
2018-04-02T09:36:33.500Z,295
2018-04-02T09:37:33.219Z,295
2018-04-02T09:38:33.482Z,315
2018-04-02T09:39:33.265Z,335
2018-04-02T09:40:33.868Z,335
2018-04-02T09:41:33.444Z,320
2018-04-02T09:42:33.460Z,300
2018-04-02T09:43:33.937Z,300
2018-04-02T09:44:33.390Z,305
2018-04-02T09:45:33.659Z,320
2018-04-02T09:46:33.110Z,340
2018-04-02T09:47:33.642Z,355
2018-04-02T09:48:33.714Z,360
2018-04-02T09:49:33.067Z,355
2018-04-02T09:50:33.857Z,360
2018-04-02T09:51:33.330Z,375
2018-04-02T09:52:33.304Z,400
2018-04-02T09:53:33.573Z,450
2018-04-02T09:54:33.814Z,500
2018-04-02T09:55:33.816Z,635
2018-04-02T09:56:33.253Z,545
2018-04-02T09:57:32.974Z,490
2018-04-02T09:58:33.502Z,475
2018-04-02T09:59:33.319Z,475
2018-04-02T10:00:33.756Z,435
2018-04-02T10:01:33.194Z,440
2018-04-02T10:02:33.182Z,495
2018-04-02T10:03:33.418Z,555
2018-04-02T10:04:33.733Z,570
2018-04-02T10:05:33.150Z,570
2018-04-02T10:06:33.387Z,600
2018-04-02T10:07:33.377Z,700
2018-04-02T10:08:33.656Z,685
2018-04-02T10:09:33.638Z,620
2018-04-02T10:10:32.877Z,660
2018-04-02T10:11:34.104Z,620
2018-04-02T10:12:32.794Z,695
2018-04-02T10:13:33.327Z,680
2018-04-02T10:14:32.503Z,570
2018-04-02T10:15:33.153Z,530
2018-04-02T10:16:33.288Z,530
2018-04-02T10:17:33.018Z,515
2018-04-02T10:18:33.258Z,480
2018-04-02T10:19:32.718Z,470
2018-04-02T10:20:32.969Z,480
2018-04-02T10:21:33.517Z,500
2018-04-02T10:22:32.409Z,565
2018-04-02T10:23:32.927Z,465
2018-04-02T10:24:32.654Z,445
2018-04-02T10:25:33.430Z,450
2018-04-02T10:26:32.628Z,475
2018-04-02T10:27:32.878Z,520
2018-04-02T10:28:32.883Z,575
2018-04-02T10:29:32.937Z,645
2018-04-02T10:30:32.846Z,615
2018-04-02T10:31:32.891Z,600
2018-04-02T10:32:33.090Z,565
2018-04-02T10:33:33.100Z,510
2018-04-02T10:34:32.282Z,530
2018-04-02T10:35:33.068Z,665
2018-04-02T10:36:33.085Z,595
2018-04-02T10:37:32.831Z,685
2018-04-02T10:38:32.509Z,535
2018-04-02T10:39:32.476Z,1010
2018-04-02T10:40:32.753Z,1065
2018-04-02T10:41:33.262Z,990
2018-04-02T10:42:33.308Z,540
2018-04-02T10:43:32.987Z,450
2018-04-02T10:44:32.975Z,415
2018-04-02T10:45:33.251Z,410
2018-04-02T10:46:32.146Z,440
2018-04-02T10:47:32.665Z,425
2018-04-02T10:48:32.759Z,340
2018-04-02T10:49:32.652Z,305
2018-04-02T10:50:32.963Z,305
2018-04-02T10:51:32.096Z,315
2018-04-02T10:52:32.347Z,330
2018-04-02T10:53:32.066Z,375
2018-04-02T10:54:32.861Z,420
2018-04-02T10:55:32.584Z,500
2018-04-02T10:56:33.154Z,935
2018-04-02T10:57:32.826Z,960
2018-04-02T10:58:33.065Z,710
2018-04-02T10:59:33.035Z,670
2018-04-02T11:00:32.592Z,665
2018-04-02T11:01:33.218Z,565
2018-04-02T11:02:32.504Z,535
2018-04-02T11:03:32.751Z,530
2018-04-02T11:04:33.152Z,645
2018-04-02T11:05:32.758Z,760
2018-04-02T11:06:32.201Z,630
2018-04-02T11:07:32.180Z,625
2018-04-02T11:08:32.766Z,630
2018-04-02T11:09:32.697Z,605
2018-04-02T11:10:32.678Z,530
2018-04-02T11:11:32.146Z,535
2018-04-02T11:12:32.474Z,550
2018-04-02T11:13:32.654Z,530
2018-04-02T11:14:32.649Z,480
2018-04-02T11:15:32.631Z,440
2018-04-02T11:16:32.517Z,390
2018-04-02T11:17:32.803Z,355
2018-04-02T11:18:32.417Z,380
2018-04-02T11:19:32.063Z,420
2018-04-02T11:20:32.839Z,480
2018-04-02T11:21:32.321Z,510
2018-04-02T11:22:32.606Z,560
2018-04-02T11:23:32.562Z,680
2018-04-02T11:24:32.538Z,645
2018-04-02T11:25:32.529Z,590
2018-04-02T11:26:32.513Z,555
2018-04-02T11:27:32.510Z,490
2018-04-02T11:28:32.369Z,460
2018-04-02T11:29:32.437Z,485
2018-04-02T11:30:32.791Z,445
2018-04-02T11:31:32.192Z,420
2018-04-02T11:32:32.177Z,410
2018-04-02T11:33:32.451Z,430
2018-04-02T11:34:32.154Z,475
2018-04-02T11:35:32.689Z,495
2018-04-02T11:36:32.672Z,560
2018-04-02T11:37:32.793Z,595
2018-04-02T11:38:32.492Z,670
2018-04-02T11:39:31.902Z,710
2018-04-02T11:40:32.089Z,670
2018-04-02T11:41:32.779Z,645
2018-04-02T11:42:31.886Z,605
2018-04-02T11:43:32.059Z,600
2018-04-02T11:44:31.875Z,600
2018-04-02T11:45:32.043Z,660
2018-04-02T11:46:31.761Z,865
2018-04-02T11:47:32.185Z,945
2018-04-02T11:48:32.048Z,920
2018-04-02T11:49:31.731Z,805
2018-04-02T11:50:32.509Z,825
2018-04-02T11:51:31.978Z,830
2018-04-02T11:52:31.744Z,1155
2018-04-02T11:53:31.473Z,915
2018-04-02T11:54:31.411Z,735
2018-04-02T11:55:31.927Z,850
2018-04-02T11:56:31.923Z,695
2018-04-02T11:57:31.918Z,625
2018-04-02T11:58:31.382Z,625
2018-04-02T11:59:32.226Z,635
2018-04-02T12:00:31.939Z,680
2018-04-02T12:01:32.162Z,655
2018-04-02T12:02:31.698Z,680
2018-04-02T12:03:31.948Z,695
2018-04-02T12:04:31.693Z,660
2018-04-02T12:05:31.839Z,640
2018-04-02T12:06:32.372Z,610
2018-04-02T12:07:31.825Z,595
2018-04-02T12:08:32.366Z,630
2018-04-02T12:09:31.811Z,695
2018-04-02T12:10:32.424Z,710
2018-04-02T12:11:32.004Z,810
2018-04-02T12:12:31.818Z,645
2018-04-02T12:13:31.788Z,605
2018-04-02T12:14:31.577Z,1130
2018-04-02T12:15:32.028Z,975
2018-04-02T12:16:31.742Z,1345
2018-04-02T12:17:31.474Z,1530
2018-04-02T12:18:31.748Z,1075
2018-04-02T12:19:31.991Z,1765
2018-04-02T12:20:32.043Z,840
2018-04-02T12:21:31.451Z,710
2018-04-02T12:22:31.974Z,580
2018-04-02T12:23:31.426Z,540
2018-04-02T12:24:31.802Z,595
2018-04-02T12:25:31.180Z,735
2018-04-02T12:26:31.545Z,610
2018-04-02T12:27:31.794Z,880
2018-04-02T12:28:31.662Z,805
2018-04-02T12:29:31.122Z,625
2018-04-02T12:30:31.656Z,575
2018-04-02T12:31:31.918Z,690
2018-04-02T12:32:31.369Z,950
2018-04-02T12:33:32.598Z,885
2018-04-02T12:34:32.081Z,955
2018-04-02T12:35:31.996Z,715
2018-04-02T12:36:31.602Z,650
2018-04-02T12:37:31.597Z,595
2018-04-02T12:38:31.995Z,600
2018-04-02T12:39:31.354Z,630
2018-04-02T12:40:32.506Z,605
2018-04-02T12:41:31.896Z,580
2018-04-02T12:42:31.552Z,560
2018-04-02T12:43:31.831Z,515
2018-04-02T12:44:32.003Z,495
2018-04-02T12:45:31.470Z,490
2018-04-02T12:46:31.529Z,505
2018-04-02T12:47:31.789Z,505
2018-04-02T12:48:31.621Z,530
2018-04-02T12:49:31.239Z,475
2018-04-02T12:50:31.757Z,470
2018-04-02T12:51:31.519Z,470
2018-04-02T12:52:31.763Z,470
2018-04-02T12:53:31.725Z,475
2018-04-02T12:54:31.716Z,485
2018-04-02T12:55:31.180Z,470
2018-04-02T12:56:31.705Z,420
2018-04-02T12:57:31.160Z,465
2018-04-02T12:58:31.428Z,535
2018-04-02T12:59:31.413Z,465
2018-04-02T13:00:31.673Z,420
2018-04-02T13:01:31.663Z,450
2018-04-02T13:02:31.371Z,510
2018-04-02T13:03:31.366Z,705
2018-04-02T13:04:32.323Z,1570
2018-04-02T13:05:31.354Z,1405
2018-04-02T13:06:31.345Z,1825
2018-04-02T13:07:31.340Z,865
2018-04-02T13:08:31.859Z,690
2018-04-02T13:09:31.593Z,835
2018-04-02T13:10:31.045Z,1080
2018-04-02T13:11:31.563Z,455
2018-04-02T13:12:31.577Z,390
2018-04-02T13:13:31.584Z,395
2018-04-02T13:14:31.033Z,420
2018-04-02T13:15:31.537Z,355
2018-04-02T13:16:31.281Z,340
2018-04-02T13:17:31.263Z,340
2018-04-02T13:18:30.977Z,340
2018-04-02T13:19:31.306Z,330
2018-04-02T13:20:31.224Z,320
2018-04-02T13:21:31.492Z,340
2018-04-02T13:22:31.216Z,360
2018-04-02T13:23:31.735Z,360
2018-04-02T13:24:31.197Z,410
2018-04-02T13:25:31.462Z,440
2018-04-02T13:26:31.453Z,415
2018-04-02T13:27:31.439Z,375
2018-04-02T13:28:30.892Z,355
2018-04-02T13:29:31.212Z,350
2018-04-02T13:30:31.406Z,375
2018-04-02T13:31:31.567Z,465
2018-04-02T13:32:31.110Z,460
2018-04-02T13:33:31.266Z,1245
2018-04-02T13:34:31.379Z,505
2018-04-02T13:35:31.088Z,295
2018-04-02T13:36:31.351Z,225
2018-04-02T13:37:31.066Z,200
2018-04-02T13:38:31.341Z,190
2018-04-02T13:39:31.054Z,185
2018-04-02T13:40:31.313Z,175
2018-04-02T13:41:31.301Z,160
2018-04-02T13:42:31.026Z,165
2018-04-02T13:43:30.741Z,175
2018-04-02T13:44:30.998Z,195
2018-04-02T13:45:30.995Z,225
2018-04-02T13:46:31.236Z,215
2018-04-02T13:47:31.232Z,210
2018-04-02T13:48:30.954Z,225
2018-04-02T13:49:30.674Z,230
2018-04-02T13:50:30.680Z,225
2018-04-02T13:51:30.928Z,260
2018-04-02T13:52:31.436Z,320
2018-04-02T13:53:31.440Z,575
2018-04-02T13:54:30.949Z,635
2018-04-02T13:55:30.878Z,520
2018-04-02T13:56:30.901Z,295
2018-04-02T13:57:30.878Z,250
2018-04-02T13:58:30.874Z,230
2018-04-02T13:59:30.846Z,220
2018-04-02T14:00:30.838Z,205
2018-04-02T14:01:31.088Z,205
2018-04-02T14:02:30.540Z,210
2018-04-02T14:03:31.170Z,235
2018-04-02T14:04:30.789Z,265
2018-04-02T14:05:30.789Z,290
2018-04-02T14:06:31.316Z,305
2018-04-02T14:07:30.798Z,310
2018-04-02T14:08:30.473Z,310
2018-04-02T14:09:30.478Z,310